首页
METAR-TAF:

METAR-TAF

机场 :

长沙黄花国际机场

长沙, 中华人民共和国

纬度: 28-11N, 经度: 113-13E, 海拔: 66米

当前天气观测

该预报发布于58分钟前的01:00 UTC
风速8节,风向北转西北
温度 26°C
湿度 84%
气压 1007 hPa
能見度: 5000
多云层高于1000英尺
阴天层高于5000英尺
轻雾

METAR: ZGHA 260100Z 34004MPS 5000 BR BKN010 OVC050 26/23 Q1007 BECMG TL0200 BKN009 OVC050

时间: 09:58 (01:58 UTC)

预报

该预报发布于6小时和53分钟前的19:05 UTC
预报有效从26日的 00点(UTC)到 26日的 24点(UTC)
风速8节,风向
能見度: 3500
多云层高于1300英尺
阴天层高于5000英尺
小雨, 轻雾

TAF: ZGHA 251905Z 2600/2624 35004MPS 3500 -RA BR BKN013 OVC050 TX27/2600Z TN23/2622Z

超过4000个机场的气象观测和天气预报(METAR&TAF报告)。

可查询的气象台以黄色和红色小点在地图上表示。

将鼠标移到小点上方,可查看气象台名称。

然后点击查看天气观测和预报。

如需切换地图:点击带黑十字的绿色按钮放大地图;点击带横线的绿色按钮缩小地图;或者点击绿色箭头查看邻近地区的地图。


METAR-TAF: